ADDS METAR Data INFO
IDs: Format: Raw Decoded Include TAF

Data at: 2220 UTC 24 Jun 2018

KSMN 242156Z AUTO 34004KT 10SM CLR 23/09 A3010 RMK AO2 SLP169 T02280089
KSMN 242056Z AUTO 00000KT 10SM CLR 22/08 A3012 RMK AO2 SLP176 T02220083 58017
KSMN 241956Z AUTO 01004KT 10SM CLR 21/08 A3014 RMK AO2 SLP184 T02110083
KSMN 241856Z AUTO 32004KT 10SM CLR 20/09 A3016 RMK AO2 SLP192 T02000089
KSMN 241756Z AUTO 01005KT 10SM CLR 19/09 A3017 RMK AO2 SLP199 T01890089 10194 20117 58002
KSMN 241656Z AUTO 34006KT 10SM SCT065 18/09 A3017 RMK AO2 SLP200 T01830094
KSMN 241556Z AUTO VRB03KT 10SM SCT065 17/08 A3018 RMK AO2 SLP203 T01670083
KSMN 241456Z AUTO 00000KT 10SM OVC060 14/09 A3018 RMK AO2 SLP204 T01440094 51008
KSMN 241356Z AUTO 04003KT 10SM OVC060 13/09 A3018 RMK AO2 SLP204 T01330094
KSMN 241256Z AUTO 00000KT 10SM OVC055 12/10 A3016 RMK AO2 SLP199 T01220100
KSMN 241156Z AUTO 00000KT 10SM OVC055 12/09 A3015 RMK AO2 SLP197 T01170094 10144 20111 53007
KSMN 241056Z AUTO 00000KT 10SM OVC055 11/08 A3014 RMK AO2 SLP192 T01110083
KSMN 240956Z AUTO 00000KT 10SM BKN055 14/09 A3013 RMK AO2 SLP183 T01390089
KSMN 240856Z AUTO 00000KT 10SM OVC070 13/09 A3013 RMK AO2 SLP186 T01330094 52005
KSMN 240756Z AUTO 00000KT 10SM OVC070 14/09 A3012 RMK AO2 SLP182 T01390089
KSMN 240656Z AUTO 00000KT 10SM OVC060 14/09 A3012 RMK AO2 SLP181 T01390089 402000083
KSMN 240556Z AUTO 00000KT 10SM BKN070 OVC085 14/08 A3011 RMK AO2 SLP181 T01390083 10194 20139 51019
KSMN 240456Z AUTO 31003KT 10SM SCT060 BKN090 OVC120 14/08 A3011 RMK AO2 SLP178 T01440078
KSMN 240356Z AUTO 01004KT 10SM SCT080 BKN090 16/07 A3008 RMK AO2 SLP172 T01560072
KSMN 240256Z AUTO 02005KT 10SM OVC090 16/08 A3005 RMK AO2 SLP162 T01610078 53012
KSMN 240156Z AUTO 01008KT 10SM FEW075 SCT085 BKN100 17/07 A3003 RMK AO2 SLP155 T01720067
KSMN 240056Z AUTO 01010KT 10SM FEW070 BKN110 18/07 A3001 RMK AO2 SLP151 T01830072
KSMN 232356Z AUTO 36011G20KT 10SM FEW070 SCT120 18/08 A3001 RMK AO2 SLP152 60000 T01780078 10200 20167 53008
KSMN 232256Z AUTO 36019G23KT 10SM BKN080 OVC100 19/06 A3000 RMK AO2 SLP146 T01890056
KSMN 232156Z AUTO 01007KT 10SM FEW075 BKN100 OVC110 19/07 A2999 RMK AO2 SLP143 T01890067
KSMN 232056Z AUTO 04003KT 10SM BKN100 19/06 A2998 RMK AO2 SLP138 60000 T01890056 56006
KSMN 231956Z AUTO 03010KT 10SM BKN100 19/07 A2999 RMK AO2 RAB05E16 SLP137 P0000 T01940072
KSMN 231856Z AUTO 05006G16KT 10SM OVC100 19/07 A2999 RMK AO2 SLP136 T01890067
KSMN 231756Z AUTO 04009KT 10SM FEW060 OVC085 17/08 A3000 RMK AO2 SLP141 T01670083 10172 20083 55007
KSMN 231656Z AUTO 35003KT 10SM SCT095 SCT120 17/09 A3000 RMK AO2 SLP138 T01720094
KSMN 231556Z AUTO 00000KT 10SM SCT070 BKN095 14/09 A3002 RMK AO2 SLP149 T01440089
KSMN 231456Z AUTO 03003KT 10SM FEW070 13/09 A3003 RMK AO2 SLP150 T01330094 50001
KSMN 231356Z AUTO 00000KT 10SM CLR 12/09 A3003 RMK AO2 SLP149 T01170089
KSMN 231256Z AUTO 00000KT 10SM FEW095 09/08 A3003 RMK AO2 SLP147 T00940083
KSMN 231156Z AUTO 00000KT 10SM FEW060 09/08 A3002 RMK AO2 SLP148 70002 T00940078 10161 20083 55001